Time;durP1;ratioP1;P1;durP2;ratioP2;P2;SDS_P1;SDS_P2;PMS_P1;PMS_P2;Temp;Humidity;BMP_temperature;BMP_pressure;BME280_temperature;BME280_humidity;BME280_pressure;Samples;Min_cycle;Max_cycle;Signal;HPM_P1;HPM_P2
2021/01/15 00:00:54;;;;;;;1.90;1.50;;;15.00;50.60;;;;;;5014505;28;20021;-48
2021/01/15 00:03:20;;;;;;;1.85;1.52;;;15.00;50.80;;;;;;5014389;28;20122;-49
2021/01/15 00:05:45;;;;;;;2.08;1.55;;;15.00;50.70;;;;;;5012984;28;20014;-48
2021/01/15 00:08:11;;;;;;;2.20;1.90;;;15.00;50.80;;;;;;5014304;28;20434;-49
2021/01/15 00:10:37;;;;;;;1.83;1.70;;;14.90;50.80;;;;;;5013883;28;20041;-49
2021/01/15 00:13:03;;;;;;;1.67;1.52;;;14.90;50.70;;;;;;5013795;28;20029;-49
2021/01/15 00:15:28;;;;;;;1.75;1.55;;;14.90;50.70;;;;;;5013970;28;20030;-48
2021/01/15 00:17:54;;;;;;;2.28;1.77;;;14.90;50.80;;;;;;5013654;28;20041;-50
2021/01/15 00:20:20;;;;;;;1.90;1.73;;;15.00;50.80;;;;;;5013943;28;20030;-50
2021/01/15 00:22:45;;;;;;;2.33;1.60;;;14.80;50.80;;;;;;5013624;28;20030;-53
2021/01/15 00:25:11;;;;;;;2.28;1.70;;;14.80;50.90;;;;;;5013520;28;20081;-48
2021/01/15 00:27:38;;;;;;;1.58;1.48;;;14.80;50.90;;;;;;5013466;28;20507;-49
2021/01/15 00:30:08;;;;;;;2.30;1.70;;;14.80;51.00;;;;;;5014724;28;20053;-49
2021/01/15 00:32:34;;;;;;;;;;;14.80;51.00;;;;;;5014213;28;20052;-48
2021/01/15 00:35:00;;;;;;;3.50;2.42;;;14.70;51.70;;;;;;5013493;28;19905;-49
2021/01/15 00:37:26;;;;;;;1.90;1.42;;;14.70;51.10;;;;;;4995686;28;20053;-50
2021/01/15 00:39:51;;;;;;;2.03;1.60;;;14.60;51.10;;;;;;5013605;28;20517;-49
2021/01/15 00:42:17;;;;;;;2.08;1.60;;;14.70;51.20;;;;;;5013514;28;20033;-49
2021/01/15 00:44:45;;;;;;;1.98;1.55;;;14.70;51.20;;;;;;5013574;28;20050;-50
2021/01/15 00:47:11;;;;;;;2.35;1.92;;;14.70;51.20;;;;;;5013364;28;20097;-48
2021/01/15 00:49:37;;;;;;;2.35;1.73;;;14.60;51.20;;;;;;5013180;28;20118;-48
2021/01/15 00:52:03;;;;;;;1.73;1.50;;;14.60;51.20;;;;;;5013366;28;20136;-52
2021/01/15 00:54:28;;;;;;;2.72;1.70;;;14.60;51.20;;;;;;5013265;28;20038;-48
2021/01/15 00:57:03;;;;;;;2.65;2.10;;;14.60;51.30;;;;;;5013127;28;20018;-48
2021/01/15 00:59:29;;;;;;;1.70;1.60;;;14.60;51.30;;;;;;5012925;28;20030;-48
2021/01/15 01:01:54;;;;;;;1.67;1.52;;;14.50;51.30;;;;;;5012874;28;20025;-49
2021/01/15 01:04:20;;;;;;;2.10;1.90;;;14.60;51.40;;;;;;5012724;28;20030;-48
2021/01/15 01:06:46;;;;;;;2.88;1.70;;;14.50;51.40;;;;;;5012877;28;20026;-50
2021/01/15 01:09:12;;;;;;;1.75;1.60;;;14.50;51.50;;;;;;5013058;28;20048;-49
2021/01/15 01:11:37;;;;;;;1.48;1.38;;;14.50;51.50;;;;;;5012848;28;20029;-48
2021/01/15 01:14:04;;;;;;;4.05;1.92;;;14.50;51.60;;;;;;5012998;28;20040;-55
2021/01/15 01:16:31;;;;;;;1.85;1.75;;;14.50;51.60;;;;;;5012648;28;20049;-50
2021/01/15 01:18:57;;;;;;;2.50;1.70;;;14.50;51.70;;;;;;5012622;28;20113;-51
2021/01/15 01:21:24;;;;;;;2.53;1.70;;;14.50;51.70;;;;;;5012692;28;20018;-48
2021/01/15 01:23:50;;;;;;;3.95;1.40;;;14.40;51.70;;;;;;5012551;28;20040;-49
2021/01/15 01:26:16;;;;;;;2.38;1.75;;;14.40;51.80;;;;;;5012819;28;20496;-48
2021/01/15 01:28:42;;;;;;;1.60;1.50;;;14.40;51.80;;;;;;5012668;28;20472;-49
2021/01/15 01:31:12;;;;;;;4.35;1.75;;;14.40;51.90;;;;;;5013707;28;20129;-49
2021/01/15 01:33:39;;;;;;;2.20;1.60;;;14.40;51.90;;;;;;5012391;28;20018;-49
2021/01/15 01:36:06;;;;;;;1.48;1.30;;;14.30;51.90;;;;;;5012514;28;20037;-49
2021/01/15 01:38:32;;;;;;;2.03;1.60;;;14.30;52.00;;;;;;5012339;28;20041;-49
2021/01/15 01:40:58;;;;;;;2.30;1.70;;;14.30;52.00;;;;;;5012630;28;20036;-49
2021/01/15 01:43:24;;;;;;;2.25;1.60;;;14.30;52.10;;;;;;5012389;28;20030;-48
2021/01/15 01:45:50;;;;;;;3.40;1.75;;;14.50;52.20;;;;;;5012589;28;20041;-48
2021/01/15 01:48:16;;;;;;;1.90;1.63;;;14.30;52.10;;;;;;5012371;28;20433;-48
2021/01/15 01:50:46;;;;;;;2.67;1.70;;;14.30;52.20;;;;;;5012259;28;20030;-49
2021/01/15 01:53:19;;;;;;;2.60;1.45;;;14.30;52.20;;;;;;5012505;28;20030;-49
2021/01/15 01:55:47;;;;;;;3.10;1.70;;;14.30;52.30;;;;;;5012372;28;20034;-50
2021/01/15 01:58:13;;;;;;;2.35;1.60;;;14.20;52.30;;;;;;5012010;28;20033;-49
2021/01/15 02:00:40;;;;;;;1.40;1.30;;;14.20;52.30;;;;;;5012251;28;20034;-49
2021/01/15 02:03:07;;;;;;;3.08;1.98;;;14.20;52.30;;;;;;4994294;28;20480;-48
2021/01/15 02:05:33;;;;;;;2.05;1.60;;;14.20;52.40;;;;;;5012254;28;20105;-47
2021/01/15 02:07:59;;;;;;;2.33;2.00;;;14.20;52.40;;;;;;5012248;28;20030;-49
2021/01/15 02:10:39;;;;;;;2.40;1.80;;;14.10;52.40;;;;;;5012038;28;20477;-48
2021/01/15 02:13:11;;;;;;;1.35;1.25;;;14.10;52.40;;;;;;5012309;28;20109;-48
2021/01/15 02:15:43;;;;;;;1.90;1.48;;;14.10;52.50;;;;;;5012004;28;20113;-48
2021/01/15 02:18:15;;;;;;;1.92;1.17;;;14.10;52.50;;;;;;5012197;28;20045;-48
2021/01/15 02:21:25;;;;;;;1.85;1.67;;;14.10;52.50;;;;;;5012208;28;20026;-47
2021/01/15 02:23:52;;;;;;;2.47;1.65;;;14.00;52.50;;;;;;5011835;28;20033;-48
2021/01/15 02:26:45;;;;;;;1.60;1.48;;;14.10;52.60;;;;;;5011791;28;20065;-48
2021/01/15 02:29:23;;;;;;;2.97;1.55;;;14.10;52.50;;;;;;5012573;28;20049;-48
2021/01/15 02:32:24;;;;;;;2.25;1.58;;;14.00;52.60;;;;;;4996430;28;20050;-49
2021/01/15 02:35:03;;;;;;;1.50;1.40;;;14.00;52.60;;;;;;4996454;28;20029;-48
2021/01/15 02:38:00;;;;;;;1.27;1.17;;;14.00;52.70;;;;;;4996005;28;20563;-48
2021/01/15 02:40:49;;;;;;;2.45;2.20;;;14.00;52.70;;;;;;4996301;28;20034;-47
2021/01/15 02:43:16;;;;;;;1.50;1.35;;;13.90;52.70;;;;;;4996234;28;20074;-49
2021/01/15 02:45:42;;;;;;;1.85;1.60;;;14.00;52.80;;;;;;4995988;28;20036;-47
2021/01/15 02:48:15;;;;;;;1.65;1.40;;;13.90;52.80;;;;;;4996149;28;20022;-49
2021/01/15 02:50:41;;;;;;;1.30;1.20;;;14.00;52.90;;;;;;4996138;28;20027;-48
2021/01/15 02:53:06;;;;;;;4.22;1.50;;;13.90;52.90;;;;;;4995899;28;20029;-48
2021/01/15 02:55:32;;;;;;;2.92;1.42;;;13.90;52.80;;;;;;4996005;28;20027;-48
2021/01/15 02:57:58;;;;;;;1.95;1.33;;;13.90;52.90;;;;;;4995581;28;20512;-49
2021/01/15 03:00:23;;;;;;;1.90;1.50;;;13.90;53.00;;;;;;4995691;28;20113;-49
2021/01/15 03:03:25;;;;;;;1.83;1.50;;;13.80;52.90;;;;;;4995508;28;20027;-48
2021/01/15 03:05:59;;;;;;;1.50;1.40;;;13.90;53.00;;;;;;4995510;28;20033;-47
2021/01/15 03:08:26;;;;;;;2.05;1.50;;;13.80;53.00;;;;;;4995469;28;20556;-49
2021/01/15 03:10:54;;;;;;;1.20;1.10;;;13.80;53.00;;;;;;4995593;28;20113;-48
2021/01/15 03:13:21;;;;;;;1.48;1.38;;;13.80;53.00;;;;;;4995326;28;20106;-48
2021/01/15 03:15:48;;;;;;;1.27;1.17;;;13.70;53.00;;;;;;4977847;28;20027;-49
2021/01/15 03:18:15;;;;;;;2.28;1.63;;;13.80;53.10;;;;;;4995183;28;20038;-51
2021/01/15 03:20:41;;;;;;;1.88;1.60;;;13.90;53.20;;;;;;4995360;28;20038;-48
2021/01/15 03:23:07;;;;;;;1.23;1.10;;;13.80;53.10;;;;;;4995358;28;20026;-49
2021/01/15 03:25:32;;;;;;;1.88;1.10;;;13.70;53.10;;;;;;4995396;28;20077;-48
2021/01/15 03:27:58;;;;;;;1.20;1.10;;;13.70;53.20;;;;;;4995254;28;20023;-49
2021/01/15 03:30:29;;;;;;;1.40;1.30;;;13.70;53.20;;;;;;5004568;28;20056;-52
2021/01/15 03:32:59;;;;;;;2.15;1.55;;;13.70;53.20;;;;;;4997969;28;20018;-47
2021/01/15 03:35:26;;;;;;;1.83;1.65;;;13.70;53.20;;;;;;5014559;28;20022;-50
2021/01/15 03:37:56;;;;;;;1.58;1.30;;;13.80;53.90;;;;;;5014556;28;20033;-49
2021/01/15 03:40:22;;;;;;;1.48;1.38;;;13.80;53.80;;;;;;5014552;28;20014;-49
2021/01/15 03:42:48;;;;;;;2.03;1.38;;;14.00;53.70;;;;;;5014322;28;20493;-48
2021/01/15 03:45:14;;;;;;;2.00;1.42;;;14.00;53.70;;;;;;5014268;28;20029;-48
2021/01/15 03:47:40;;;;;;;1.63;1.23;;;14.00;53.70;;;;;;5014555;28;20026;-50
2021/01/15 03:50:07;;;;;;;1.75;1.15;;;14.00;53.60;;;;;;5014492;28;20105;-48
2021/01/15 03:52:32;;;;;;;1.52;1.42;;;14.10;53.50;;;;;;5014042;28;20384;-50
2021/01/15 03:54:58;;;;;;;1.52;1.30;;;14.10;53.50;;;;;;5014092;28;20022;-50
2021/01/15 03:57:24;;;;;;;1.50;1.40;;;14.00;53.40;;;;;;5014049;28;20038;-49
2021/01/15 03:59:49;;;;;;;1.67;1.13;;;14.10;53.30;;;;;;5013965;28;20049;-48
2021/01/15 04:02:15;;;;;;;1.52;1.38;;;14.10;53.30;;;;;;5013840;28;20109;-49
2021/01/15 04:04:41;;;;;;;1.15;1.13;;;14.10;53.30;;;;;;5014290;28;20022;-48
2021/01/15 04:07:07;;;;;;;2.17;1.48;;;14.00;53.30;;;;;;5013988;28;20547;-51
2021/01/15 04:09:33;;;;;;;1.65;1.30;;;14.00;53.30;;;;;;5014235;28;20045;-48
2021/01/15 04:11:58;;;;;;;2.10;1.20;;;13.90;53.30;;;;;;5013775;28;20120;-50
2021/01/15 04:14:24;;;;;;;1.40;1.30;;;13.90;53.30;;;;;;5014140;28;20018;-48
2021/01/15 04:16:51;;;;;;;1.40;1.30;;;13.90;53.40;;;;;;5013964;28;20022;-48
2021/01/15 04:19:16;;;;;;;2.03;1.23;;;13.90;54.10;;;;;;4996710;28;20030;-51
2021/01/15 04:21:42;;;;;;;1.40;1.30;;;13.80;53.40;;;;;;5013635;28;20451;-51
2021/01/15 04:24:08;;;;;;;1.50;1.15;;;13.80;53.50;;;;;;5013609;28;20030;-49
2021/01/15 04:26:33;;;;;;;1.98;1.58;;;13.80;53.50;;;;;;5013721;28;20040;-50
2021/01/15 04:28:59;;;;;;;1.45;1.30;;;13.80;53.50;;;;;;5013721;28;20022;-48
2021/01/15 04:31:24;;;;;;;2.20;1.30;;;13.70;53.40;;;;;;5015709;28;20058;-47
2021/01/15 04:33:50;;;;;;;1.45;1.23;;;13.70;53.40;;;;;;4995998;28;20112;-48
2021/01/15 04:36:15;;;;;;;1.38;1.27;;;13.70;53.50;;;;;;5013589;28;20026;-48
2021/01/15 04:38:42;;;;;;;1.58;1.40;;;13.70;53.50;;;;;;5013533;28;20037;-47
2021/01/15 04:41:09;;;;;;;1.65;1.42;;;13.70;53.60;;;;;;5013406;28;20472;-48
2021/01/15 04:43:38;;;;;;;2.33;1.77;;;13.60;53.60;;;;;;5013208;28;20040;-48
2021/01/15 04:46:04;;;;;;;1.48;1.20;;;13.70;53.90;;;;;;4995712;28;20025;-48
2021/01/15 04:48:34;;;;;;;1.55;1.35;;;13.70;54.20;;;;;;5012982;28;20022;-49
2021/01/15 04:51:01;;;;;;;1.53;1.10;;;13.70;54.10;;;;;;5013209;28;20022;-48
2021/01/15 04:53:29;;;;;;;1.05;0.95;;;13.80;54.50;;;;;;5012301;28;20038;-48
2021/01/15 04:55:59;;;;;;;1.40;1.27;;;13.90;53.80;;;;;;5013348;28;20100;-49
2021/01/15 04:58:33;;;;;;;1.23;1.03;;;13.90;53.50;;;;;;5012793;28;20041;-47
2021/01/15 05:00:59;;;;;;;1.20;1.10;;;14.00;53.50;;;;;;4995234;28;20277;-49
2021/01/15 05:03:25;;;;;;;0.90;0.90;;;14.00;53.40;;;;;;5013024;28;20369;-49
2021/01/15 05:06:06;;;;;;;1.02;1.00;;;14.10;53.40;;;;;;5013209;28;20018;-50
2021/01/15 05:08:36;;;;;;;1.15;1.00;;;14.10;53.30;;;;;;5012949;28;20073;-51
2021/01/15 05:11:03;;;;;;;1.52;1.42;;;14.10;53.40;;;;;;5012835;28;20033;-48
2021/01/15 05:13:36;;;;;;;1.40;1.27;;;14.00;53.30;;;;;;5013105;28;20037;-48
2021/01/15 05:16:03;;;;;;;1.52;1.20;;;14.10;53.30;;;;;;5012994;28;20021;-49
2021/01/15 05:18:32;;;;;;;1.10;1.00;;;14.10;53.30;;;;;;5012559;28;20080;-48
2021/01/15 05:20:58;;;;;;;1.20;1.08;;;14.10;53.30;;;;;;5012565;28;20029;-49
2021/01/15 05:23:24;;;;;;;1.20;1.00;;;14.00;53.30;;;;;;5012627;28;20041;-48
2021/01/15 05:25:50;;;;;;;1.10;1.00;;;14.00;53.40;;;;;;5012766;28;20022;-49
2021/01/15 05:28:21;;;;;;;1.35;1.20;;;14.00;53.50;;;;;;5012737;28;20029;-48
2021/01/15 05:30:59;;;;;;;1.00;0.90;;;14.00;53.40;;;;;;5013742;28;20038;-49
2021/01/15 05:33:24;;;;;;;0.90;0.90;;;13.90;53.50;;;;;;4994778;28;20064;-49
2021/01/15 05:35:52;;;;;;;1.13;1.08;;;13.90;53.50;;;;;;5012713;28;20045;-48
2021/01/15 05:38:20;;;;;;;1.30;1.20;;;13.90;53.60;;;;;;5012513;28;20121;-50
2021/01/15 05:40:47;;;;;;;1.25;1.05;;;13.90;54.00;;;;;;5012598;28;20129;-48
2021/01/15 05:43:24;;;;;;;1.38;1.27;;;13.90;53.70;;;;;;5012195;28;20029;-47
2021/01/15 05:46:11;;;;;;;1.17;1.00;;;13.90;53.60;;;;;;5012536;28;20026;-49
2021/01/15 05:48:45;;;;;;;1.52;1.35;;;13.90;53.70;;;;;;5012365;28;20026;-49
2021/01/15 05:51:32;;;;;;;1.20;1.10;;;13.90;53.80;;;;;;5012379;28;20018;-48
2021/01/15 05:53:58;;;;;;;1.23;1.13;;;13.80;53.90;;;;;;5012243;28;20042;-48
2021/01/15 05:56:25;;;;;;;1.10;1.00;;;13.70;53.90;;;;;;5012217;28;20030;-48
2021/01/15 05:59:20;;;;;;;1.30;1.20;;;13.70;54.10;;;;;;5012289;28;20387;-48
2021/01/15 06:01:46;;;;;;;1.38;1.10;;;13.80;67.70;;;;;;4994916;28;20069;-48
2021/01/15 06:04:17;;;;;;;1.27;1.17;;;13.70;54.20;;;;;;5012039;28;20077;-51
2021/01/15 06:06:44;;;;;;;1.42;1.33;;;13.70;54.50;;;;;;5012398;28;20648;-48
2021/01/15 06:09:11;;;;;;;1.38;1.20;;;13.70;54.30;;;;;;5012076;28;20022;-50
2021/01/15 06:11:39;;;;;;;1.40;1.30;;;13.80;54.30;;;;;;5011962;28;20026;-48
2021/01/15 06:14:23;;;;;;;1.70;1.20;;;13.80;54.40;;;;;;5011773;28;20469;-50
2021/01/15 06:16:58;;;;;;;1.30;1.13;;;13.90;54.40;;;;;;5012205;28;20038;-50
2021/01/15 06:19:24;;;;;;;1.38;1.27;;;14.00;54.30;;;;;;5011940;28;20561;-49
2021/01/15 06:21:53;;;;;;;1.50;0.98;;;14.00;54.30;;;;;;5011791;28;20026;-50
2021/01/15 06:24:22;;;;;;;2.30;1.30;;;14.00;54.20;;;;;;5012131;28;20064;-48
2021/01/15 06:27:05;;;;;;;2.00;1.20;;;14.10;54.20;;;;;;5012054;28;20010;-50
2021/01/15 06:29:57;;;;;;;1.23;1.13;;;14.10;54.10;;;;;;5011531;28;20034;-49
2021/01/15 06:32:26;;;;;;;1.30;1.20;;;14.20;54.10;;;;;;5009034;28;20076;-50
2021/01/15 06:34:54;;;;;;;2.45;1.20;;;14.20;54.00;;;;;;5011925;28;20022;-49
2021/01/15 06:37:20;;;;;;;1.80;1.00;;;14.20;54.00;;;;;;5011826;28;20105;-48
2021/01/15 06:40:07;;;;;;;1.17;1.08;;;14.20;54.00;;;;;;5011813;28;20026;-48
2021/01/15 06:42:44;;;;;;;1.50;1.38;;;14.20;53.90;;;;;;5011661;28;20026;-49
2021/01/15 06:45:13;;;;;;;2.00;1.27;;;14.30;53.90;;;;;;5012028;28;20054;-49
2021/01/15 06:47:43;;;;;;;1.88;1.35;;;14.30;53.90;;;;;;5011865;28;20033;-49
2021/01/15 06:50:13;;;;;;;;;;;14.30;53.80;;;;;;5012334;28;20026;-50
2021/01/15 06:52:50;;;;;;;1.30;1.20;;;14.30;54.40;;;;;;5011541;28;19916;-47
2021/01/15 06:55:19;;;;;;;1.77;1.50;;;14.30;53.60;;;;;;5011902;28;20423;-47
2021/01/15 06:57:47;;;;;;;1.38;1.17;;;14.40;53.70;;;;;;5011657;28;20085;-48
2021/01/15 07:00:14;;;;;;;1.20;1.10;;;14.40;53.70;;;;;;5011631;28;20034;-48
2021/01/15 07:03:18;;;;;;;1.52;1.10;;;14.40;53.50;;;;;;4993067;28;20405;-47
2021/01/15 07:05:45;;;;;;;3.20;1.17;;;14.40;53.80;;;;;;5011334;28;20030;-48
2021/01/15 07:08:15;;;;;;;1.13;1.02;;;14.50;54.00;;;;;;5011438;28;20022;-48
2021/01/15 07:10:41;;;;;;;2.72;1.30;;;14.50;54.10;;;;;;5011471;28;20065;-48
2021/01/15 07:13:10;;;;;;;2.70;1.08;;;14.60;53.90;;;;;;5011564;28;20425;-48
2021/01/15 07:15:44;;;;;;;7.22;1.40;;;14.60;53.90;;;;;;5012566;28;20029;-50
2021/01/15 07:18:30;;;;;;;1.45;1.25;;;14.60;53.80;;;;;;5014857;28;20036;-48
2021/01/15 07:20:59;;;;;;;1.85;1.30;;;14.70;54.40;;;;;;5014628;28;20026;-48
2021/01/15 07:23:52;;;;;;;3.35;1.58;;;14.70;53.70;;;;;;5014948;28;20022;-47
2021/01/15 07:26:24;;;;;;;1.17;1.08;;;14.80;53.60;;;;;;5011275;28;20122;-47
2021/01/15 07:28:58;;;;;;;3.00;1.33;;;14.90;53.40;;;;;;5014816;28;20212;-49
2021/01/15 07:31:25;;;;;;;3.47;1.35;;;15.00;53.00;;;;;;5015750;28;20054;-48
2021/01/15 07:33:58;;;;;;;1.42;1.10;;;15.10;53.00;;;;;;4996893;28;20717;-47
2021/01/15 07:36:34;;;;;;;2.45;1.00;;;15.10;52.80;;;;;;5014531;28;20057;-49
2021/01/15 07:39:13;;;;;;;2.35;1.95;;;15.20;52.60;;;;;;5014667;28;20540;-48
2021/01/15 07:41:45;;;;;;;4.53;1.20;;;15.30;52.50;;;;;;5013219;28;20064;-48
2021/01/15 07:44:25;;;;;;;1.77;1.20;;;15.40;52.30;;;;;;5014591;28;20025;-48
2021/01/15 07:46:55;;;;;;;1.35;0.90;;;15.40;52.10;;;;;;5013591;28;20377;-48
2021/01/15 07:49:22;;;;;;;1.48;1.33;;;15.50;52.10;;;;;;5014273;28;20104;-48
2021/01/15 07:52:09;;;;;;;2.38;1.35;;;15.50;52.20;;;;;;5014357;28;20026;-49
2021/01/15 07:54:49;;;;;;;2.65;1.63;;;15.50;52.30;;;;;;5014169;28;20065;-52
2021/01/15 07:57:15;;;;;;;2.33;1.45;;;15.40;52.60;;;;;;5014045;28;20037;-47
2021/01/15 07:59:41;;;;;;;2.70;1.40;;;15.40;53.00;;;;;;5013928;28;20029;-46
2021/01/15 08:02:08;;;;;;;2.03;1.27;;;15.30;53.00;;;;;;5014095;28;20025;-47
2021/01/15 08:04:40;;;;;;;3.97;1.50;;;15.30;53.10;;;;;;5014378;28;20036;-49
2021/01/15 08:07:46;;;;;;;2.40;1.35;;;15.20;53.10;;;;;;5013884;28;20025;-47
2021/01/15 08:10:23;;;;;;;2.22;1.52;;;15.10;53.10;;;;;;4915068;29;20080;-47
2021/01/15 08:12:49;;;;;;;3.88;1.33;;;;;;;;;;4915221;29;20115;-49
2021/01/15 08:15:31;;;;;;;2.25;1.50;;;15.00;52.80;;;;;;4968750;28;20475;-48
2021/01/15 08:18:01;;;;;;;2.33;1.33;;;15.00;53.30;;;;;;5013666;28;20033;-48
2021/01/15 08:20:27;;;;;;;;;;;14.90;53.90;;;;;;5014182;28;20022;-46
2021/01/15 08:22:53;;;;;;;2.53;1.42;;;14.90;53.10;;;;;;5013586;28;19911;-46
2021/01/15 08:25:29;;;;;;;1.48;1.38;;;14.90;52.90;;;;;;5013612;28;20083;-47
2021/01/15 08:27:56;;;;;;;2.20;1.40;;;14.90;52.90;;;;;;5012914;28;20022;-47
2021/01/15 08:30:23;;;;;;;2.20;1.48;;;14.90;52.90;;;;;;5013944;28;20034;-46
2021/01/15 08:32:48;;;;;;;2.03;1.77;;;14.80;52.80;;;;;;4996129;28;20054;-48
2021/01/15 08:35:23;;;;;;;1.55;1.38;;;14.80;53.50;;;;;;5013542;28;20100;-46
2021/01/15 08:37:57;;;;;;;2.22;1.90;;;14.80;52.90;;;;;;5013706;28;20133;-47
2021/01/15 08:40:28;;;;;;;1.77;1.55;;;14.70;52.80;;;;;;5013607;28;20373;-49
2021/01/15 08:42:56;;;;;;;1.60;1.50;;;14.70;52.80;;;;;;5013360;28;20037;-47
2021/01/15 08:45:28;;;;;;;9.05;2.10;;;14.70;52.80;;;;;;5013550;28;20400;-47
2021/01/15 08:47:56;;;;;;;1.90;1.70;;;14.70;52.60;;;;;;5013566;28;20036;-47
2021/01/15 08:50:23;;;;;;;2.60;1.85;;;14.70;52.50;;;;;;5013503;28;20025;-47
2021/01/15 08:52:49;;;;;;;3.92;2.20;;;14.80;52.60;;;;;;5013160;28;20055;-46
2021/01/15 08:55:17;;;;;;;1.70;1.60;;;14.80;52.50;;;;;;5013154;28;20052;-48
2021/01/15 08:57:43;;;;;;;4.10;2.28;;;14.80;52.60;;;;;;5013251;28;20029;-51
2021/01/15 09:00:13;;;;;;;2.00;1.80;;;14.80;52.50;;;;;;5013279;28;20388;-50
2021/01/15 09:02:43;;;;;;;1.98;1.77;;;14.80;52.40;;;;;;5013085;28;20028;-47
2021/01/15 09:05:30;;;;;;;1.92;1.73;;;14.80;52.30;;;;;;5013146;28;20061;-48
2021/01/15 09:07:57;;;;;;;2.30;1.80;;;14.80;52.50;;;;;;5013416;28;20435;-47
2021/01/15 09:10:22;;;;;;;2.60;1.90;;;14.80;52.50;;;;;;5013183;28;20029;-47
2021/01/15 09:12:49;;;;;;;3.97;2.00;;;14.80;52.30;;;;;;5012920;28;20029;-47
2021/01/15 09:15:22;;;;;;;2.58;1.85;;;14.80;52.10;;;;;;5013068;28;20022;-47
2021/01/15 09:17:48;;;;;;;1.73;1.58;;;14.80;52.00;;;;;;4993409;28;20126;-46
2021/01/15 09:20:16;;;;;;;2.63;2.15;;;14.90;52.00;;;;;;5012690;28;20021;-48
2021/01/15 09:22:41;;;;;;;2.17;1.90;;;14.80;51.90;;;;;;5012305;28;20088;-49
2021/01/15 09:25:08;;;;;;;2.95;1.80;;;14.80;51.90;;;;;;5012608;28;20029;-48
2021/01/15 09:27:34;;;;;;;2.72;2.30;;;14.80;51.90;;;;;;5012536;28;20028;-47
2021/01/15 09:29:59;;;;;;;2.75;2.17;;;14.90;52.00;;;;;;5012336;28;20116;-47
2021/01/15 09:32:25;;;;;;;2.28;2.08;;;14.80;51.90;;;;;;4995842;28;20054;-48
2021/01/15 09:34:51;;;;;;;2.10;1.60;;;14.80;51.60;;;;;;5012294;28;20021;-49
2021/01/15 09:37:17;;;;;;;2.03;1.50;;;15.30;51.90;;;;;;5012530;28;20030;-48
2021/01/15 09:39:43;;;;;;;2.58;1.80;;;14.90;51.60;;;;;;5011958;28;20113;-46
2021/01/15 09:42:10;;;;;;;2.75;1.83;;;14.90;51.80;;;;;;5012040;28;20061;-48
2021/01/15 09:44:35;;;;;;;2.65;1.90;;;14.90;51.80;;;;;;5011704;28;20170;-47
2021/01/15 09:47:03;;;;;;;3.65;2.08;;;15.00;51.70;;;;;;5011146;28;20224;-46
2021/01/15 09:49:32;;;;;;;2.30;1.83;;;14.90;51.60;;;;;;5011697;28;20076;-46
2021/01/15 09:51:59;;;;;;;2.15;1.83;;;14.90;51.60;;;;;;5011284;28;20021;-46
2021/01/15 09:54:24;;;;;;;2.00;1.75;;;14.90;51.60;;;;;;5012065;28;20061;-46
2021/01/15 09:56:50;;;;;;;2.88;2.03;;;14.90;51.70;;;;;;5012061;28;20061;-48
2021/01/15 09:59:17;;;;;;;3.28;2.13;;;14.90;51.90;;;;;;5011999;28;20045;-46
2021/01/15 10:01:45;;;;;;;2.08;1.67;;;15.00;51.80;;;;;;5012189;28;20022;-46
2021/01/15 10:04:10;;;;;;;2.53;1.92;;;14.90;51.80;;;;;;5012246;28;20033;-46
2021/01/15 10:06:40;;;;;;;2.10;1.50;;;14.90;52.00;;;;;;5011917;28;20022;-46
2021/01/15 10:09:07;;;;;;;2.47;2.28;;;14.90;51.90;;;;;;5011952;28;20022;-46
2021/01/15 10:11:36;;;;;;;1.95;1.80;;;15.00;52.50;;;;;;5011953;28;20153;-46
2021/01/15 10:14:10;;;;;;;2.67;1.92;;;14.90;51.80;;;;;;5012165;28;20022;-47
2021/01/15 10:16:37;;;;;;;3.53;2.20;;;15.00;52.00;;;;;;5012141;28;20022;-47
2021/01/15 10:19:03;;;;;;;1.77;1.67;;;15.00;52.00;;;;;;5011974;28;20029;-47
2021/01/15 10:21:30;;;;;;;2.22;1.90;;;15.00;51.90;;;;;;5011926;28;20021;-46
2021/01/15 10:23:56;;;;;;;1.77;1.63;;;15.00;51.90;;;;;;5012078;28;20026;-46
2021/01/15 10:26:24;;;;;;;2.08;1.80;;;14.90;51.90;;;;;;4994144;28;20480;-49
2021/01/15 10:28:56;;;;;;;1.83;1.73;;;14.90;51.70;;;;;;4994215;28;20354;-46
2021/01/15 10:31:26;;;;;;;2.10;1.90;;;15.00;51.70;;;;;;5013111;28;20049;-47
2021/01/15 10:33:52;;;;;;;2.63;1.67;;;15.00;51.70;;;;;;5011931;28;20032;-47
2021/01/15 10:36:18;;;;;;;3.00;2.10;;;14.90;51.80;;;;;;5012054;28;20077;-50
2021/01/15 10:38:43;;;;;;;3.60;2.10;;;15.00;51.80;;;;;;5011885;28;20034;-48
2021/01/15 10:41:09;;;;;;;2.83;2.00;;;15.00;51.70;;;;;;5012019;28;20017;-47
2021/01/15 10:43:35;;;;;;;3.25;2.00;;;15.00;51.70;;;;;;5011930;28;20518;-47
2021/01/15 10:46:00;;;;;;;2.25;2.05;;;15.00;51.80;;;;;;5011637;28;20022;-46
2021/01/15 10:48:26;;;;;;;3.67;2.00;;;15.00;51.80;;;;;;5012027;28;20062;-49
2021/01/15 10:50:51;;;;;;;3.10;2.15;;;15.00;51.70;;;;;;5013228;28;20026;-47
2021/01/15 10:53:17;;;;;;;3.38;2.00;;;15.00;51.70;;;;;;5015454;28;20093;-46
2021/01/15 10:55:43;;;;;;;2.13;1.80;;;15.00;52.50;;;;;;5015667;28;20025;-47
2021/01/15 10:58:09;;;;;;;2.55;1.80;;;15.10;51.90;;;;;;5015556;28;20033;-47
2021/01/15 11:00:35;;;;;;;2.00;1.80;;;15.10;51.80;;;;;;5015216;28;20038;-47
2021/01/15 11:03:00;;;;;;;2.88;1.95;;;15.00;51.70;;;;;;5015465;28;20033;-46
2021/01/15 11:05:26;;;;;;;2.30;2.10;;;15.00;51.80;;;;;;5015180;28;20374;-49
2021/01/15 11:07:52;;;;;;;3.30;2.25;;;15.10;51.90;;;;;;5015286;28;20133;-47
2021/01/15 11:10:17;;;;;;;2.53;2.00;;;15.10;51.80;;;;;;4997448;28;20488;-49
2021/01/15 11:12:43;;;;;;;4.63;1.88;;;15.10;51.70;;;;;;5015354;28;20036;-48
2021/01/15 11:15:09;;;;;;;2.78;2.17;;;15.10;51.80;;;;;;5015219;28;20026;-48
2021/01/15 11:17:40;;;;;;;2.33;2.08;;;15.10;51.90;;;;;;5015136;28;20022;-48
2021/01/15 11:20:09;;;;;;;2.42;2.15;;;15.10;51.80;;;;;;5014705;28;20022;-47
2021/01/15 11:22:36;;;;;;;3.30;2.03;;;15.10;51.70;;;;;;5014994;28;20105;-46
2021/01/15 11:25:04;;;;;;;2.15;1.70;;;15.10;51.80;;;;;;5014927;28;20432;-47
2021/01/15 11:27:29;;;;;;;1.90;1.80;;;15.10;51.90;;;;;;5014647;28;20018;-48
2021/01/15 11:29:55;;;;;;;2.30;1.88;;;15.10;51.80;;;;;;5014625;28;20037;-45
2021/01/15 11:32:21;;;;;;;2.40;2.03;;;15.00;51.70;;;;;;5015727;28;20046;-48
2021/01/15 11:34:47;;;;;;;1.85;1.63;;;15.10;51.80;;;;;;5014773;28;20052;-46
2021/01/15 11:37:13;;;;;;;2.70;2.13;;;15.10;51.90;;;;;;5014430;28;20049;-46
2021/01/15 11:39:38;;;;;;;2.70;2.30;;;15.10;64.90;;;;;;5014993;28;20034;-49
2021/01/15 11:42:04;;;;;;;1.80;1.70;;;15.10;51.80;;;;;;5014392;28;20030;-50
2021/01/15 11:44:30;;;;;;;2.55;2.10;;;15.20;52.00;;;;;;5014828;28;20036;-48
2021/01/15 11:46:55;;;;;;;2.75;2.20;;;15.20;51.90;;;;;;5014495;28;20163;-52
2021/01/15 11:49:21;;;;;;;2.75;2.00;;;15.20;51.80;;;;;;5013897;28;20037;-51
2021/01/15 11:51:46;;;;;;;2.42;2.08;;;15.20;51.80;;;;;;5013514;28;20021;-50
2021/01/15 11:54:12;;;;;;;2.20;1.80;;;15.30;52.00;;;;;;5014061;28;20080;-53
2021/01/15 11:56:39;;;;;;;2.30;1.90;;;15.30;51.90;;;;;;5014350;28;20431;-50
2021/01/15 11:59:05;;;;;;;3.13;2.05;;;15.40;52.00;;;;;;5014198;28;20508;-48
2021/01/15 12:01:30;;;;;;;2.75;2.03;;;15.50;51.90;;;;;;5013996;28;20053;-48
2021/01/15 12:03:56;;;;;;;1.77;1.67;;;15.50;51.90;;;;;;5014027;28;20026;-50
2021/01/15 12:06:21;;;;;;;1.98;1.77;;;15.50;51.70;;;;;;5014167;28;20258;-49
2021/01/15 12:08:47;;;;;;;2.47;1.88;;;15.60;51.80;;;;;;5013979;28;20057;-48
2021/01/15 12:11:12;;;;;;;3.42;2.10;;;15.60;51.70;;;;;;5013734;28;20477;-50
2021/01/15 12:13:38;;;;;;;3.08;2.10;;;15.70;51.70;;;;;;5013922;28;20022;-48
2021/01/15 12:16:04;;;;;;;3.17;1.90;;;15.80;51.70;;;;;;5014049;28;20168;-51
2021/01/15 12:18:30;;;;;;;2.85;1.73;;;15.80;51.50;;;;;;5013987;28;20112;-48
2021/01/15 12:20:56;;;;;;;1.92;1.73;;;15.80;52.20;;;;;;5013509;28;20168;-49
2021/01/15 12:23:23;;;;;;;3.60;2.00;;;15.90;51.60;;;;;;5013803;28;20445;-52
2021/01/15 12:25:48;;;;;;;2.70;2.00;;;15.90;51.40;;;;;;5013701;28;20026;-49
2021/01/15 12:28:15;;;;;;;2.53;1.90;;;15.80;51.00;;;;;;5013558;28;20585;-50
2021/01/15 12:30:42;;;;;;;2.25;1.90;;;15.80;51.00;;;;;;5013605;28;20018;-50
2021/01/15 12:33:16;;;;;;;3.95;2.08;;;15.70;51.30;;;;;;5014532;28;20404;-50
2021/01/15 12:35:43;;;;;;;2.20;2.00;;;15.70;51.10;;;;;;5013587;28;20513;-49
2021/01/15 12:38:20;;;;;;;2.28;2.08;;;15.60;51.40;;;;;;5012728;28;20049;-50
2021/01/15 12:40:46;;;;;;;3.15;2.17;;;15.60;51.00;;;;;;5013123;28;20054;-51
2021/01/15 12:43:13;;;;;;;3.03;2.30;;;15.60;51.30;;;;;;5013451;28;20029;-49
2021/01/15 12:45:44;;;;;;;2.67;2.20;;;15.50;51.40;;;;;;4995843;28;20061;-48
2021/01/15 12:48:11;;;;;;;3.17;2.28;;;15.60;51.40;;;;;;5013454;28;20030;-47
2021/01/15 12:50:37;;;;;;;3.72;2.40;;;15.60;51.00;;;;;;4995348;28;20025;-49
2021/01/15 12:53:02;;;;;;;3.60;2.15;;;15.50;51.70;;;;;;5013279;28;20026;-48
2021/01/15 12:55:30;;;;;;;2.53;1.90;;;15.50;51.20;;;;;;5013359;28;20068;-48
2021/01/15 12:57:56;;;;;;;3.05;2.30;;;15.50;51.10;;;;;;5013018;28;20121;-50